sensor_id;sensor_type;location;lat;lon;timestamp;P1;durP1;ratioP1;P2;durP2;ratioP2
3979;SDS011;2004;52.452;13.120;2022-08-19T00:03:09;14.53;;;11.47;;
3979;SDS011;2004;52.452;13.120;2022-08-19T00:10:59;14.07;;;12.43;;
3979;SDS011;2004;52.452;13.120;2022-08-19T00:18:50;13.70;;;11.20;;
3979;SDS011;2004;52.452;13.120;2022-08-19T00:26:41;16.83;;;11.57;;
3979;SDS011;2004;52.452;13.120;2022-08-19T00:34:32;12.50;;;11.13;;
3979;SDS011;2004;52.452;13.120;2022-08-19T00:42:22;12.93;;;11.57;;
3979;SDS011;2004;52.452;13.120;2022-08-19T00:50:15;13.90;;;12.50;;
3979;SDS011;2004;52.452;13.120;2022-08-19T00:58:10;12.40;;;11.10;;
3979;SDS011;2004;52.452;13.120;2022-08-19T01:06:05;16.63;;;12.80;;
3979;SDS011;2004;52.452;13.120;2022-08-19T01:13:56;13.00;;;11.63;;
3979;SDS011;2004;52.452;13.120;2022-08-19T01:21:49;15.17;;;12.50;;
3979;SDS011;2004;52.452;13.120;2022-08-19T01:29:45;14.37;;;12.50;;
3979;SDS011;2004;52.452;13.120;2022-08-19T01:37:47;16.90;;;14.70;;
3979;SDS011;2004;52.452;13.120;2022-08-19T01:45:46;18.63;;;14.20;;
3979;SDS011;2004;52.452;13.120;2022-08-19T01:53:37;16.13;;;14.07;;
3979;SDS011;2004;52.452;13.120;2022-08-19T02:01:28;28.00;;;15.20;;
3979;SDS011;2004;52.452;13.120;2022-08-19T02:09:21;19.90;;;16.73;;
3979;SDS011;2004;52.452;13.120;2022-08-19T02:17:12;30.30;;;20.20;;
3979;SDS011;2004;52.452;13.120;2022-08-19T02:25:03;32.33;;;19.70;;
3979;SDS011;2004;52.452;13.120;2022-08-19T02:32:54;30.30;;;21.87;;
3979;SDS011;2004;52.452;13.120;2022-08-19T02:40:49;28.83;;;21.90;;
3979;SDS011;2004;52.452;13.120;2022-08-19T02:48:42;23.53;;;18.10;;
3979;SDS011;2004;52.452;13.120;2022-08-19T02:56:37;21.23;;;17.53;;
3979;SDS011;2004;52.452;13.120;2022-08-19T03:04:29;17.80;;;15.70;;
3979;SDS011;2004;52.452;13.120;2022-08-19T03:12:19;15.77;;;13.90;;
3979;SDS011;2004;52.452;13.120;2022-08-19T03:20:10;16.73;;;14.43;;
3979;SDS011;2004;52.452;13.120;2022-08-19T03:28:00;19.03;;;17.00;;
3979;SDS011;2004;52.452;13.120;2022-08-19T03:43:55;21.57;;;18.40;;
3979;SDS011;2004;52.452;13.120;2022-08-19T03:51:46;21.33;;;17.13;;
3979;SDS011;2004;52.452;13.120;2022-08-19T03:59:38;24.97;;;19.70;;
3979;SDS011;2004;52.452;13.120;2022-08-19T04:07:29;21.83;;;19.50;;
3979;SDS011;2004;52.452;13.120;2022-08-19T04:15:20;20.77;;;17.97;;
3979;SDS011;2004;52.452;13.120;2022-08-19T04:23:11;24.63;;;17.90;;
3979;SDS011;2004;52.452;13.120;2022-08-19T04:31:02;22.83;;;19.20;;
3979;SDS011;2004;52.452;13.120;2022-08-19T04:38:54;23.63;;;16.80;;
3979;SDS011;2004;52.452;13.120;2022-08-19T04:46:47;24.80;;;18.57;;
3979;SDS011;2004;52.452;13.120;2022-08-19T04:54:39;21.53;;;16.90;;
3979;SDS011;2004;52.452;13.120;2022-08-19T05:02:29;27.00;;;17.77;;
3979;SDS011;2004;52.452;13.120;2022-08-19T05:10:20;28.10;;;16.30;;
3979;SDS011;2004;52.452;13.120;2022-08-19T05:18:11;19.93;;;17.00;;
3979;SDS011;2004;52.452;13.120;2022-08-19T05:26:20;20.17;;;18.07;;
3979;SDS011;2004;52.452;13.120;2022-08-19T05:34:10;26.03;;;17.77;;
3979;SDS011;2004;52.452;13.120;2022-08-19T05:42:03;21.63;;;19.43;;
3979;SDS011;2004;52.452;13.120;2022-08-19T05:49:56;22.20;;;18.20;;
3979;SDS011;2004;52.452;13.120;2022-08-19T05:57:47;20.60;;;15.27;;
3979;SDS011;2004;52.452;13.120;2022-08-19T06:05:38;26.83;;;20.40;;
3979;SDS011;2004;52.452;13.120;2022-08-19T06:13:29;21.63;;;19.23;;
3979;SDS011;2004;52.452;13.120;2022-08-19T06:21:20;28.80;;;16.90;;
3979;SDS011;2004;52.452;13.120;2022-08-19T06:29:13;22.30;;;19.93;;
3979;SDS011;2004;52.452;13.120;2022-08-19T06:37:05;21.77;;;17.57;;
3979;SDS011;2004;52.452;13.120;2022-08-19T06:44:59;23.47;;;20.97;;
3979;SDS011;2004;52.452;13.120;2022-08-19T06:52:52;17.97;;;16.10;;
3979;SDS011;2004;52.452;13.120;2022-08-19T07:00:44;22.40;;;18.20;;
3979;SDS011;2004;52.452;13.120;2022-08-19T07:08:34;22.70;;;19.70;;
3979;SDS011;2004;52.452;13.120;2022-08-19T07:16:26;21.67;;;18.97;;
3979;SDS011;2004;52.452;13.120;2022-08-19T07:24:17;20.63;;;18.53;;
3979;SDS011;2004;52.452;13.120;2022-08-19T07:32:08;23.80;;;21.30;;
3979;SDS011;2004;52.452;13.120;2022-08-19T07:40:01;25.43;;;22.20;;
3979;SDS011;2004;52.452;13.120;2022-08-19T07:47:54;28.53;;;21.87;;
3979;SDS011;2004;52.452;13.120;2022-08-19T07:55:44;27.47;;;21.90;;
3979;SDS011;2004;52.452;13.120;2022-08-19T08:03:35;24.47;;;21.93;;
3979;SDS011;2004;52.452;13.120;2022-08-19T08:11:46;25.13;;;22.43;;
3979;SDS011;2004;52.452;13.120;2022-08-19T08:19:39;24.33;;;21.77;;
3979;SDS011;2004;52.452;13.120;2022-08-19T08:27:31;18.83;;;16.90;;
3979;SDS011;2004;52.452;13.120;2022-08-19T08:35:25;25.80;;;22.83;;
3979;SDS011;2004;52.452;13.120;2022-08-19T08:43:23;23.43;;;20.93;;
3979;SDS011;2004;52.452;13.120;2022-08-19T08:51:22;22.57;;;20.07;;
3979;SDS011;2004;52.452;13.120;2022-08-19T08:59:20;23.00;;;20.70;;
3979;SDS011;2004;52.452;13.120;2022-08-19T09:07:26;21.10;;;19.00;;
3979;SDS011;2004;52.452;13.120;2022-08-19T09:15:42;20.90;;;18.70;;
3979;SDS011;2004;52.452;13.120;2022-08-19T09:23:37;25.60;;;20.50;;
3979;SDS011;2004;52.452;13.120;2022-08-19T09:31:28;22.20;;;18.73;;
3979;SDS011;2004;52.452;13.120;2022-08-19T09:39:19;20.50;;;17.47;;
3979;SDS011;2004;52.452;13.120;2022-08-19T09:47:11;16.47;;;13.60;;
3979;SDS011;2004;52.452;13.120;2022-08-19T09:55:03;16.87;;;15.27;;
3979;SDS011;2004;52.452;13.120;2022-08-19T10:02:54;23.10;;;15.50;;
3979;SDS011;2004;52.452;13.120;2022-08-19T10:10:45;20.57;;;18.43;;
3979;SDS011;2004;52.452;13.120;2022-08-19T10:18:37;20.10;;;18.03;;
3979;SDS011;2004;52.452;13.120;2022-08-19T10:26:28;21.43;;;17.57;;
3979;SDS011;2004;52.452;13.120;2022-08-19T10:34:21;22.50;;;19.20;;
3979;SDS011;2004;52.452;13.120;2022-08-19T10:42:11;23.60;;;19.60;;
3979;SDS011;2004;52.452;13.120;2022-08-19T10:50:03;20.83;;;18.00;;
3979;SDS011;2004;52.452;13.120;2022-08-19T10:58:13;22.70;;;15.90;;
3979;SDS011;2004;52.452;13.120;2022-08-19T11:06:07;18.70;;;16.80;;
3979;SDS011;2004;52.452;13.120;2022-08-19T11:13:58;14.50;;;13.07;;
3979;SDS011;2004;52.452;13.120;2022-08-19T11:21:49;17.53;;;15.40;;
3979;SDS011;2004;52.452;13.120;2022-08-19T11:29:41;23.40;;;20.23;;
3979;SDS011;2004;52.452;13.120;2022-08-19T11:37:32;15.40;;;13.77;;
3979;SDS011;2004;52.452;13.120;2022-08-19T11:45:27;16.67;;;14.97;;
3979;SDS011;2004;52.452;13.120;2022-08-19T11:53:19;16.33;;;14.80;;
3979;SDS011;2004;52.452;13.120;2022-08-19T12:01:10;17.00;;;12.10;;
3979;SDS011;2004;52.452;13.120;2022-08-19T12:09:04;12.27;;;11.17;;
3979;SDS011;2004;52.452;13.120;2022-08-19T12:16:58;11.13;;;10.03;;
3979;SDS011;2004;52.452;13.120;2022-08-19T12:24:48;12.13;;;10.23;;
3979;SDS011;2004;52.452;13.120;2022-08-19T12:32:40;12.20;;;11.10;;
3979;SDS011;2004;52.452;13.120;2022-08-19T12:40:31;33.23;;;25.57;;
3979;SDS011;2004;52.452;13.120;2022-08-19T12:48:21;28.10;;;24.37;;
3979;SDS011;2004;52.452;13.120;2022-08-19T12:56:12;30.80;;;22.50;;
3979;SDS011;2004;52.452;13.120;2022-08-19T13:04:04;29.33;;;24.53;;
3979;SDS011;2004;52.452;13.120;2022-08-19T13:11:55;27.63;;;24.63;;
3979;SDS011;2004;52.452;13.120;2022-08-19T13:19:46;27.17;;;20.90;;
3979;SDS011;2004;52.452;13.120;2022-08-19T13:27:37;27.37;;;20.67;;
3979;SDS011;2004;52.452;13.120;2022-08-19T13:35:28;35.03;;;22.77;;
3979;SDS011;2004;52.452;13.120;2022-08-19T13:43:19;23.70;;;21.20;;
3979;SDS011;2004;52.452;13.120;2022-08-19T13:51:12;26.17;;;21.37;;
3979;SDS011;2004;52.452;13.120;2022-08-19T13:59:02;22.23;;;19.07;;
3979;SDS011;2004;52.452;13.120;2022-08-19T14:06:53;20.87;;;18.73;;
3979;SDS011;2004;52.452;13.120;2022-08-19T14:14:43;18.60;;;15.80;;
3979;SDS011;2004;52.452;13.120;2022-08-19T14:22:35;23.83;;;18.63;;
3979;SDS011;2004;52.452;13.120;2022-08-19T14:30:27;20.77;;;18.60;;
3979;SDS011;2004;52.452;13.120;2022-08-19T14:38:19;23.43;;;18.23;;
3979;SDS011;2004;52.452;13.120;2022-08-19T14:46:10;24.93;;;16.60;;
3979;SDS011;2004;52.452;13.120;2022-08-19T14:54:02;17.07;;;15.27;;
3979;SDS011;2004;52.452;13.120;2022-08-19T15:01:53;17.23;;;15.53;;
3979;SDS011;2004;52.452;13.120;2022-08-19T15:09:43;16.40;;;14.67;;
3979;SDS011;2004;52.452;13.120;2022-08-19T15:17:34;13.20;;;12.00;;
3979;SDS011;2004;52.452;13.120;2022-08-19T15:25:27;12.80;;;11.60;;
3979;SDS011;2004;52.452;13.120;2022-08-19T15:33:18;12.40;;;11.23;;
3979;SDS011;2004;52.452;13.120;2022-08-19T15:41:20;23.07;;;13.83;;
3979;SDS011;2004;52.452;13.120;2022-08-19T15:49:16;12.40;;;11.30;;
3979;SDS011;2004;52.452;13.120;2022-08-19T15:57:08;11.27;;;10.13;;
3979;SDS011;2004;52.452;13.120;2022-08-19T16:05:11;9.20;;;8.40;;
3979;SDS011;2004;52.452;13.120;2022-08-19T16:13:22;9.77;;;8.93;;
3979;SDS011;2004;52.452;13.120;2022-08-19T16:21:14;9.17;;;8.37;;
3979;SDS011;2004;52.452;13.120;2022-08-19T16:29:08;8.97;;;8.17;;
3979;SDS011;2004;52.452;13.120;2022-08-19T16:36:59;9.17;;;8.27;;
3979;SDS011;2004;52.452;13.120;2022-08-19T16:44:49;9.07;;;8.27;;
3979;SDS011;2004;52.452;13.120;2022-08-19T16:52:40;9.97;;;8.70;;
3979;SDS011;2004;52.452;13.120;2022-08-19T17:00:31;9.37;;;8.20;;
3979;SDS011;2004;52.452;13.120;2022-08-19T17:08:23;10.47;;;9.43;;
3979;SDS011;2004;52.452;13.120;2022-08-19T17:16:16;12.90;;;11.57;;
3979;SDS011;2004;52.452;13.120;2022-08-19T17:24:13;17.90;;;16.00;;
3979;SDS011;2004;52.452;13.120;2022-08-19T17:32:04;31.23;;;24.10;;
3979;SDS011;2004;52.452;13.120;2022-08-19T17:39:56;25.63;;;21.93;;
3979;SDS011;2004;52.452;13.120;2022-08-19T17:47:47;27.83;;;22.13;;
3979;SDS011;2004;52.452;13.120;2022-08-19T17:55:37;26.20;;;21.70;;
3979;SDS011;2004;52.452;13.120;2022-08-19T18:03:28;34.20;;;24.90;;
3979;SDS011;2004;52.452;13.120;2022-08-19T18:11:19;31.27;;;26.60;;
3979;SDS011;2004;52.452;13.120;2022-08-19T18:19:09;32.13;;;27.17;;
3979;SDS011;2004;52.452;13.120;2022-08-19T18:27:00;37.60;;;27.20;;
3979;SDS011;2004;52.452;13.120;2022-08-19T18:34:51;23.90;;;17.27;;
3979;SDS011;2004;52.452;13.120;2022-08-19T18:42:43;28.73;;;20.57;;
3979;SDS011;2004;52.452;13.120;2022-08-19T18:50:57;29.60;;;21.23;;
3979;SDS011;2004;52.452;13.120;2022-08-19T18:58:49;24.53;;;21.10;;
3979;SDS011;2004;52.452;13.120;2022-08-19T19:06:40;24.90;;;18.30;;
3979;SDS011;2004;52.452;13.120;2022-08-19T19:14:32;28.87;;;20.73;;
3979;SDS011;2004;52.452;13.120;2022-08-19T19:22:24;22.73;;;18.07;;
3979;SDS011;2004;52.452;13.120;2022-08-19T19:30:15;32.50;;;22.33;;
3979;SDS011;2004;52.452;13.120;2022-08-19T19:38:05;30.87;;;22.87;;
3979;SDS011;2004;52.452;13.120;2022-08-19T19:45:56;20.83;;;16.40;;
3979;SDS011;2004;52.452;13.120;2022-08-19T19:53:48;33.53;;;22.03;;
3979;SDS011;2004;52.452;13.120;2022-08-19T20:01:38;24.23;;;20.10;;
3979;SDS011;2004;52.452;13.120;2022-08-19T20:09:34;25.83;;;20.57;;
3979;SDS011;2004;52.452;13.120;2022-08-19T20:17:25;35.67;;;22.63;;
3979;SDS011;2004;52.452;13.120;2022-08-19T20:25:17;24.80;;;21.10;;
3979;SDS011;2004;52.452;13.120;2022-08-19T20:33:09;21.57;;;18.47;;
3979;SDS011;2004;52.452;13.120;2022-08-19T20:41:00;25.60;;;19.27;;
3979;SDS011;2004;52.452;13.120;2022-08-19T20:48:51;23.90;;;17.73;;
3979;SDS011;2004;52.452;13.120;2022-08-19T20:56:41;22.60;;;18.37;;
3979;SDS011;2004;52.452;13.120;2022-08-19T21:04:32;25.80;;;18.10;;
3979;SDS011;2004;52.452;13.120;2022-08-19T21:12:23;22.47;;;18.50;;
3979;SDS011;2004;52.452;13.120;2022-08-19T21:20:14;20.20;;;17.43;;
3979;SDS011;2004;52.452;13.120;2022-08-19T21:28:05;20.50;;;16.67;;
3979;SDS011;2004;52.452;13.120;2022-08-19T21:35:56;22.77;;;17.10;;
3979;SDS011;2004;52.452;13.120;2022-08-19T21:43:47;19.37;;;17.20;;
3979;SDS011;2004;52.452;13.120;2022-08-19T21:51:38;18.90;;;14.70;;
3979;SDS011;2004;52.452;13.120;2022-08-19T21:59:28;25.63;;;21.97;;
3979;SDS011;2004;52.452;13.120;2022-08-19T22:07:19;28.03;;;18.80;;
3979;SDS011;2004;52.452;13.120;2022-08-19T22:15:11;25.13;;;21.20;;
3979;SDS011;2004;52.452;13.120;2022-08-19T22:23:04;27.10;;;20.67;;
3979;SDS011;2004;52.452;13.120;2022-08-19T22:30:56;29.00;;;19.20;;
3979;SDS011;2004;52.452;13.120;2022-08-19T22:38:47;32.40;;;22.50;;
3979;SDS011;2004;52.452;13.120;2022-08-19T22:46:37;35.67;;;24.90;;
3979;SDS011;2004;52.452;13.120;2022-08-19T22:54:28;33.10;;;24.40;;
3979;SDS011;2004;52.452;13.120;2022-08-19T23:02:20;41.33;;;24.97;;
3979;SDS011;2004;52.452;13.120;2022-08-19T23:10:12;33.13;;;22.83;;
3979;SDS011;2004;52.452;13.120;2022-08-19T23:18:03;33.87;;;25.50;;
3979;SDS011;2004;52.452;13.120;2022-08-19T23:25:55;31.97;;;23.33;;
3979;SDS011;2004;52.452;13.120;2022-08-19T23:33:46;34.73;;;25.67;;
3979;SDS011;2004;52.452;13.120;2022-08-19T23:41:37;26.53;;;21.43;;
3979;SDS011;2004;52.452;13.120;2022-08-19T23:49:28;29.77;;;22.37;;
3979;SDS011;2004;52.452;13.120;2022-08-19T23:57:20;28.53;;;17.30;;
